createdAt,value
2023-03-19T00:02:17.385Z,10.17
2023-03-19T00:04:46.663Z,10.16
2023-03-19T00:07:15.749Z,10.07
2023-03-19T00:09:43.566Z,10.18
2023-03-19T00:12:12.064Z,10.22
2023-03-19T00:14:39.892Z,10.21
2023-03-19T00:17:09.271Z,10.12
2023-03-19T00:19:37.217Z,10.05
2023-03-19T00:22:04.998Z,10.01
2023-03-19T00:24:33.279Z,9.86
2023-03-19T00:27:01.064Z,9.86
2023-03-19T00:29:28.818Z,9.87
2023-03-19T00:31:56.766Z,9.95
2023-03-19T00:34:25.999Z,9.93
2023-03-19T00:36:53.724Z,9.96
2023-03-19T00:39:25.478Z,9.96
2023-03-19T00:41:53.537Z,9.93
2023-03-19T00:44:21.293Z,9.77
2023-03-19T00:46:49.031Z,9.77
2023-03-19T00:49:16.750Z,9.82
2023-03-19T00:51:45.919Z,9.80
2023-03-19T00:54:13.828Z,9.71
2023-03-19T00:56:41.728Z,9.63
2023-03-19T00:59:09.496Z,9.62
2023-03-19T01:01:37.895Z,9.63
2023-03-19T01:04:06.275Z,9.61
2023-03-19T01:06:35.339Z,9.58
2023-03-19T01:09:04.685Z,9.53
2023-03-19T01:11:32.401Z,9.57
2023-03-19T01:14:00.321Z,9.59
2023-03-19T01:16:28.327Z,9.54
2023-03-19T01:18:56.160Z,9.53
2023-03-19T01:21:23.955Z,9.49
2023-03-19T01:23:52.790Z,9.50
2023-03-19T01:26:21.912Z,9.52
2023-03-19T01:28:49.860Z,9.48
2023-03-19T01:31:17.769Z,9.54
2023-03-19T01:33:45.558Z,9.56
2023-03-19T01:36:13.314Z,9.32
2023-03-19T01:38:41.350Z,9.23
2023-03-19T01:41:09.585Z,9.28
2023-03-19T01:43:39.086Z,9.22
2023-03-19T01:46:12.740Z,9.27
2023-03-19T01:48:44.215Z,9.03
2023-03-19T01:51:14.904Z,8.88
2023-03-19T01:53:47.276Z,8.82
2023-03-19T01:56:20.713Z,8.69
2023-03-19T01:58:53.802Z,8.64
2023-03-19T02:01:21.690Z,8.67
2023-03-19T02:03:51.677Z,8.61
2023-03-19T02:06:21.975Z,8.53
2023-03-19T02:08:52.953Z,8.29
2023-03-19T02:11:22.085Z,8.20
2023-03-19T02:13:51.351Z,8.24
2023-03-19T02:16:19.286Z,8.18
2023-03-19T02:18:47.650Z,8.09
2023-03-19T02:21:17.690Z,8.22
2023-03-19T02:23:51.290Z,8.03
2023-03-19T02:26:22.497Z,8.15
2023-03-19T02:28:52.515Z,8.21
2023-03-19T02:31:21.848Z,8.35
2023-03-19T02:33:58.659Z,8.20
2023-03-19T02:36:31.504Z,8.34
2023-03-19T02:39:03.515Z,8.36
2023-03-19T02:41:33.617Z,8.37
2023-03-19T02:44:04.499Z,8.41
2023-03-19T02:46:32.873Z,8.42
2023-03-19T02:49:00.679Z,8.44
2023-03-19T02:51:28.372Z,8.50
2023-03-19T02:53:56.084Z,8.42
2023-03-19T02:56:24.036Z,8.50
2023-03-19T02:58:53.384Z,8.50
2023-03-19T03:01:21.294Z,8.52
2023-03-19T03:03:49.126Z,8.55
2023-03-19T03:06:17.980Z,8.51
2023-03-19T03:08:46.237Z,8.59
2023-03-19T03:11:13.963Z,8.56
2023-03-19T03:13:42.106Z,8.55
2023-03-19T03:16:11.399Z,8.58
2023-03-19T03:18:39.123Z,8.60
2023-03-19T03:21:07.062Z,8.64
2023-03-19T03:23:34.932Z,8.65
2023-03-19T03:26:02.839Z,8.65
2023-03-19T03:28:30.669Z,8.64
2023-03-19T03:31:00.024Z,8.66
2023-03-19T03:33:29.524Z,8.81
2023-03-19T03:35:57.320Z,8.82
2023-03-19T03:38:25.111Z,8.81
2023-03-19T03:40:53.838Z,8.72
2023-03-19T03:43:22.496Z,8.79
2023-03-19T03:45:50.281Z,8.73
2023-03-19T03:48:18.439Z,8.81
2023-03-19T03:50:47.587Z,8.81
2023-03-19T03:53:15.483Z,8.78
2023-03-19T03:55:43.265Z,8.82
2023-03-19T03:58:11.054Z,8.82
2023-03-19T04:00:38.816Z,8.78
2023-03-19T04:03:06.572Z,8.90
2023-03-19T04:05:34.277Z,8.95
2023-03-19T04:08:03.874Z,8.85
2023-03-19T04:10:32.361Z,8.79
2023-03-19T04:13:00.290Z,8.83
2023-03-19T04:15:28.307Z,8.67
2023-03-19T04:17:56.015Z,8.80
2023-03-19T04:20:24.089Z,8.82
2023-03-19T04:22:51.858Z,8.84
2023-03-19T04:25:21.058Z,8.97
2023-03-19T04:27:49.135Z,8.86
2023-03-19T04:30:17.079Z,8.94
2023-03-19T04:32:45.336Z,8.96
2023-03-19T04:35:13.278Z,8.96
2023-03-19T04:37:41.141Z,8.86
2023-03-19T04:40:10.378Z,8.85
2023-03-19T04:42:39.415Z,8.93
2023-03-19T04:45:08.036Z,8.90
2023-03-19T04:47:35.766Z,8.93
2023-03-19T04:50:03.864Z,9.03
2023-03-19T04:52:31.578Z,9.06
2023-03-19T04:54:59.314Z,9.04
2023-03-19T04:57:27.058Z,9.03
2023-03-19T04:59:56.207Z,9.08
2023-03-19T05:02:24.373Z,9.01
2023-03-19T05:04:52.061Z,9.03
2023-03-19T05:07:19.758Z,8.89
2023-03-19T05:09:47.761Z,8.83
2023-03-19T05:12:15.802Z,8.89
2023-03-19T05:14:43.523Z,8.91
2023-03-19T05:17:15.179Z,8.88
2023-03-19T05:19:43.459Z,8.98
2023-03-19T05:22:11.425Z,8.97
2023-03-19T05:24:39.187Z,8.87
2023-03-19T05:27:07.550Z,8.87
2023-03-19T05:29:36.217Z,8.88
2023-03-19T05:32:04.384Z,8.78
2023-03-19T05:34:33.586Z,8.77
2023-03-19T05:37:01.390Z,8.73
2023-03-19T05:39:29.141Z,8.73
2023-03-19T05:41:56.926Z,8.70
2023-03-19T05:44:24.681Z,8.65
2023-03-19T05:46:52.639Z,8.71
2023-03-19T05:49:20.467Z,8.72
2023-03-19T05:51:49.571Z,8.69
2023-03-19T05:54:17.269Z,8.75
2023-03-19T05:56:45.039Z,8.78
2023-03-19T05:59:12.712Z,8.64
2023-03-19T06:01:40.874Z,8.64
2023-03-19T06:04:08.638Z,8.60
2023-03-19T06:06:36.524Z,8.81
2023-03-19T06:09:05.633Z,8.91
2023-03-19T06:11:33.394Z,8.89
2023-03-19T06:14:01.152Z,8.87
2023-03-19T06:16:28.874Z,8.95
2023-03-19T06:18:56.870Z,8.96
2023-03-19T06:21:25.931Z,8.85
2023-03-19T06:23:53.627Z,9.02
2023-03-19T06:26:22.726Z,9.01
2023-03-19T06:28:50.542Z,9.15
2023-03-19T06:31:18.329Z,9.03
2023-03-19T06:33:46.054Z,9.02
2023-03-19T06:36:14.043Z,9.03
2023-03-19T06:38:41.761Z,9.16
2023-03-19T06:41:09.554Z,9.22
2023-03-19T06:43:41.325Z,9.19
2023-03-19T06:46:11.767Z,9.18
2023-03-19T06:48:40.207Z,9.23
2023-03-19T06:51:08.071Z,9.33
2023-03-19T06:53:36.101Z,9.44
2023-03-19T06:56:04.167Z,9.52
2023-03-19T06:58:31.915Z,9.45
2023-03-19T07:01:01.246Z,9.63
2023-03-19T07:03:29.088Z,9.64
2023-03-19T07:05:56.902Z,9.81
2023-03-19T07:08:29.468Z,9.90
2023-03-19T07:10:57.401Z,9.77
2023-03-19T07:13:25.148Z,9.58
2023-03-19T07:15:52.852Z,9.59
2023-03-19T07:18:21.888Z,9.63
2023-03-19T07:20:49.638Z,9.60
2023-03-19T07:23:17.506Z,9.70
2023-03-19T07:25:45.578Z,9.88
2023-03-19T07:28:13.331Z,9.82
2023-03-19T07:30:41.100Z,9.99
2023-03-19T07:33:09.489Z,9.90
2023-03-19T07:35:38.608Z,10.08
2023-03-19T07:38:06.533Z,10.01
2023-03-19T07:40:34.513Z,9.97
2023-03-19T07:43:02.799Z,9.93
2023-03-19T07:45:30.606Z,9.96
2023-03-19T07:47:58.274Z,9.95
2023-03-19T07:50:25.924Z,9.90
2023-03-19T07:52:54.984Z,9.86
2023-03-19T07:55:22.663Z,9.90
2023-03-19T07:57:50.588Z,9.89
2023-03-19T08:00:19.441Z,9.92
2023-03-19T08:02:47.381Z,9.94
2023-03-19T08:05:16.239Z,9.94
2023-03-19T08:07:45.066Z,9.98
2023-03-19T08:10:14.539Z,10.19
2023-03-19T08:12:42.288Z,10.16
2023-03-19T08:15:12.026Z,10.32
2023-03-19T08:17:39.775Z,10.26
2023-03-19T08:20:09.626Z,10.10
2023-03-19T08:22:37.648Z,10.32
2023-03-19T08:25:07.147Z,10.46
2023-03-19T08:27:36.631Z,10.52
2023-03-19T08:30:06.307Z,10.61
2023-03-19T08:32:34.092Z,10.60
2023-03-19T08:35:01.888Z,10.58
2023-03-19T08:37:29.628Z,10.64
2023-03-19T08:39:57.456Z,10.65
2023-03-19T08:42:25.516Z,10.69
2023-03-19T08:44:54.490Z,10.71
2023-03-19T08:47:24.339Z,10.67
2023-03-19T08:49:52.317Z,10.66
2023-03-19T08:52:20.563Z,10.70
2023-03-19T08:54:48.432Z,10.74
2023-03-19T08:57:16.109Z,10.72
2023-03-19T08:59:43.940Z,10.74
2023-03-19T09:02:13.608Z,10.70
2023-03-19T09:04:42.169Z,10.62
2023-03-19T09:07:13.046Z,10.61
2023-03-19T09:09:41.582Z,10.57
2023-03-19T09:12:11.115Z,10.64
2023-03-19T09:14:39.739Z,10.68
2023-03-19T09:17:07.888Z,10.74
2023-03-19T09:19:37.934Z,10.88
2023-03-19T09:22:06.983Z,11.00
2023-03-19T09:24:34.819Z,11.06
2023-03-19T09:27:02.794Z,11.03
2023-03-19T09:29:31.027Z,11.05
2023-03-19T09:31:58.793Z,11.00
2023-03-19T09:34:26.599Z,10.95
2023-03-19T09:36:55.720Z,10.97
2023-03-19T09:39:23.426Z,11.02
2023-03-19T09:42:01.184Z,11.03
2023-03-19T09:44:30.998Z,11.04
2023-03-19T09:47:06.033Z,11.05
2023-03-19T09:49:39.038Z,11.08
2023-03-19T09:52:20.475Z,11.13
2023-03-19T09:54:52.365Z,11.23
2023-03-19T09:57:20.414Z,11.26
2023-03-19T09:59:49.304Z,11.24
2023-03-19T10:02:41.850Z,11.28
2023-03-19T10:05:22.620Z,11.32
2023-03-19T10:08:17.356Z,11.33
2023-03-19T10:10:51.477Z,11.33
2023-03-19T10:13:31.241Z,11.32
2023-03-19T10:16:02.023Z,11.26
2023-03-19T10:18:34.614Z,11.23
2023-03-19T10:21:05.318Z,11.24
2023-03-19T10:23:44.419Z,11.13
2023-03-19T10:26:14.960Z,11.15
2023-03-19T10:28:45.453Z,11.10
2023-03-19T10:31:28.196Z,11.13
2023-03-19T10:34:08.493Z,11.11
2023-03-19T10:36:38.111Z,11.07
2023-03-19T10:39:08.138Z,11.27
2023-03-19T10:41:48.401Z,11.26
2023-03-19T10:44:29.165Z,11.24
2023-03-19T10:46:59.798Z,11.15
2023-03-19T10:49:27.839Z,11.11
2023-03-19T10:51:58.671Z,11.16
2023-03-19T10:54:29.064Z,11.19
2023-03-19T10:56:58.260Z,11.11
2023-03-19T10:59:32.924Z,11.19
2023-03-19T11:02:03.611Z,11.10
2023-03-19T11:04:32.337Z,11.39
2023-03-19T11:07:07.445Z,11.60
2023-03-19T11:09:39.042Z,11.78
2023-03-19T11:12:09.552Z,11.72
2023-03-19T11:14:43.805Z,11.55
2023-03-19T11:17:21.426Z,11.84
2023-03-19T11:19:53.314Z,11.49
2023-03-19T11:22:25.491Z,11.72
2023-03-19T11:24:57.025Z,11.83
2023-03-19T11:27:29.729Z,12.19
2023-03-19T11:29:59.128Z,12.75
2023-03-19T11:33:00.535Z,13.42
2023-03-19T11:35:34.383Z,13.80
2023-03-19T11:38:04.577Z,13.48
2023-03-19T11:40:43.886Z,13.58
2023-03-19T11:43:29.264Z,14.33
2023-03-19T11:46:05.327Z,14.80
2023-03-19T11:48:49.255Z,14.21
2023-03-19T11:51:22.960Z,15.29
2023-03-19T11:54:03.685Z,15.89
2023-03-19T11:56:42.693Z,17.27
2023-03-19T11:59:25.616Z,16.75
2023-03-19T12:02:26.745Z,15.43
2023-03-19T12:05:10.034Z,16.29
2023-03-19T12:07:46.149Z,16.79
2023-03-19T12:10:31.286Z,18.06
2023-03-19T12:13:14.505Z,19.69
2023-03-19T12:15:53.671Z,20.09
2023-03-19T12:18:39.658Z,19.83
2023-03-19T12:21:12.777Z,20.17
2023-03-19T12:24:00.559Z,19.08
2023-03-19T12:26:40.684Z,18.78
2023-03-19T12:29:21.207Z,18.88
2023-03-19T12:32:09.688Z,19.76
2023-03-19T12:34:41.906Z,19.08
2023-03-19T12:37:18.267Z,19.79
2023-03-19T12:39:55.793Z,19.97
2023-03-19T12:42:29.681Z,19.45
2023-03-19T12:45:00.490Z,19.14
2023-03-19T12:47:32.730Z,18.24
2023-03-19T12:50:04.500Z,17.38
2023-03-19T12:52:36.510Z,17.36
2023-03-19T12:55:15.276Z,18.42
2023-03-19T12:57:48.599Z,18.38
2023-03-19T13:00:27.657Z,18.31
2023-03-19T13:03:03.366Z,18.23
2023-03-19T13:05:36.168Z,18.31
2023-03-19T13:08:11.832Z,18.03
2023-03-19T13:10:39.583Z,18.22
2023-03-19T13:13:24.309Z,17.71
2023-03-19T13:15:58.749Z,17.23
2023-03-19T13:18:36.385Z,16.77
2023-03-19T13:21:16.746Z,16.55
2023-03-19T13:23:46.511Z,16.97
2023-03-19T13:26:15.809Z,17.63
2023-03-19T13:28:56.756Z,17.73
2023-03-19T13:31:28.003Z,17.58
2023-03-19T13:34:03.625Z,17.51
2023-03-19T13:36:36.373Z,16.87
2023-03-19T13:39:04.262Z,16.12
2023-03-19T13:41:54.944Z,15.80
2023-03-19T13:44:33.710Z,15.43
2023-03-19T13:47:04.267Z,15.42
2023-03-19T13:49:35.735Z,15.33
2023-03-19T13:52:38.962Z,15.23
2023-03-19T13:55:32.628Z,15.25
2023-03-19T13:58:17.785Z,15.59
2023-03-19T14:00:59.972Z,15.70
2023-03-19T14:03:31.994Z,15.92
2023-03-19T14:06:01.708Z,16.05
2023-03-19T14:08:33.732Z,15.78
2023-03-19T14:11:03.586Z,15.62
2023-03-19T14:13:35.167Z,15.68
2023-03-19T14:16:09.415Z,15.67
2023-03-19T14:18:42.274Z,15.74
2023-03-19T14:21:13.257Z,15.52
2023-03-19T14:23:46.342Z,15.57
2023-03-19T14:26:19.910Z,15.71
2023-03-19T14:28:54.742Z,15.52
2023-03-19T14:31:35.082Z,15.85
2023-03-19T14:34:15.592Z,16.04
2023-03-19T14:36:48.527Z,16.12
2023-03-19T14:39:22.631Z,15.98
2023-03-19T14:41:56.849Z,15.97
2023-03-19T14:44:57.204Z,15.93
2023-03-19T14:47:35.180Z,15.92
2023-03-19T14:50:53.601Z,15.67
2023-03-19T14:53:29.357Z,15.63
2023-03-19T14:55:57.369Z,15.69
2023-03-19T14:58:25.378Z,15.72
2023-03-19T15:00:55.486Z,15.70
2023-03-19T15:03:31.503Z,15.53
2023-03-19T15:06:02.088Z,15.68
2023-03-19T15:08:34.411Z,15.47
2023-03-19T15:11:17.188Z,15.44
2023-03-19T15:13:59.893Z,15.44
2023-03-19T15:16:46.479Z,15.64
2023-03-19T15:19:16.412Z,15.53
2023-03-19T15:21:44.238Z,15.75
2023-03-19T15:24:18.268Z,15.65
2023-03-19T15:26:47.405Z,15.74
2023-03-19T15:29:18.529Z,15.60
2023-03-19T15:31:54.950Z,15.57
2023-03-19T15:34:31.626Z,15.28
2023-03-19T15:37:03.486Z,15.30
2023-03-19T15:39:36.344Z,15.38
2023-03-19T15:42:05.818Z,15.09
2023-03-19T15:44:40.781Z,15.15
2023-03-19T15:47:12.625Z,14.97
2023-03-19T15:49:44.343Z,14.95
2023-03-19T15:52:16.083Z,15.14
2023-03-19T15:54:45.364Z,15.22
2023-03-19T15:57:15.493Z,15.08
2023-03-19T15:59:43.540Z,15.05
2023-03-19T16:02:22.613Z,14.84
2023-03-19T16:05:18.250Z,14.79
2023-03-19T16:07:43.809Z,14.67
2023-03-19T16:10:33.643Z,14.55
2023-03-19T16:13:04.053Z,14.61
2023-03-19T16:15:38.738Z,14.62
2023-03-19T16:18:26.307Z,14.62
2023-03-19T16:21:09.903Z,14.67
2023-03-19T16:23:41.425Z,14.65
2023-03-19T16:26:20.948Z,14.78
2023-03-19T16:28:56.912Z,14.55
2023-03-19T16:31:28.904Z,14.47
2023-03-19T16:33:57.285Z,14.38
2023-03-19T16:36:30.154Z,14.44
2023-03-19T16:39:13.766Z,14.39
2023-03-19T16:41:45.985Z,14.34
2023-03-19T16:44:17.546Z,14.30
2023-03-19T16:46:45.924Z,14.24
2023-03-19T16:49:13.697Z,14.25
2023-03-19T16:51:41.621Z,14.21
2023-03-19T16:54:12.330Z,14.20
2023-03-19T16:56:40.081Z,14.09
2023-03-19T16:59:27.156Z,14.08
2023-03-19T17:01:54.844Z,13.98
2023-03-19T17:04:23.822Z,13.94
2023-03-19T17:06:51.649Z,13.92
2023-03-19T17:09:19.276Z,13.96
2023-03-19T17:11:47.130Z,13.89
2023-03-19T17:14:19.710Z,13.75
2023-03-19T17:16:50.682Z,13.65
2023-03-19T17:19:20.422Z,13.66
2023-03-19T17:21:49.320Z,13.68
2023-03-19T17:24:23.702Z,13.57
2023-03-19T17:26:52.164Z,13.57
2023-03-19T17:29:23.739Z,13.55
2023-03-19T17:31:53.236Z,13.51
2023-03-19T17:34:22.568Z,13.49
2023-03-19T17:36:52.237Z,13.49
2023-03-19T17:39:20.379Z,13.47
2023-03-19T17:41:48.067Z,13.47
2023-03-19T17:44:15.827Z,13.43
2023-03-19T17:46:48.513Z,13.38
2023-03-19T17:49:21.358Z,13.40
2023-03-19T17:51:49.404Z,13.41
2023-03-19T17:54:17.048Z,13.33
2023-03-19T17:56:45.275Z,13.32
2023-03-19T17:59:14.282Z,13.27
2023-03-19T18:01:44.118Z,13.23
2023-03-19T18:04:15.158Z,13.28
2023-03-19T18:06:45.934Z,13.26
2023-03-19T18:09:20.979Z,13.31
2023-03-19T18:11:49.059Z,13.21
2023-03-19T18:14:16.854Z,13.37
2023-03-19T18:16:45.478Z,13.54
2023-03-19T18:19:21.300Z,13.40
2023-03-19T18:21:49.052Z,13.35
2023-03-19T18:24:16.682Z,13.17
2023-03-19T18:26:44.406Z,13.10
2023-03-19T18:29:12.140Z,13.07
2023-03-19T18:31:41.436Z,12.93
2023-03-19T18:34:13.601Z,12.91
2023-03-19T18:36:43.124Z,12.90
2023-03-19T18:39:13.900Z,12.80
2023-03-19T18:41:41.891Z,12.79
2023-03-19T18:44:11.007Z,12.68
2023-03-19T18:46:40.685Z,12.59
2023-03-19T18:49:19.417Z,12.58
2023-03-19T18:52:01.555Z,12.52
2023-03-19T18:54:31.551Z,12.51
2023-03-19T18:57:00.312Z,12.47
2023-03-19T18:59:32.469Z,12.47
2023-03-19T19:02:03.262Z,12.35
2023-03-19T19:04:34.444Z,12.28
2023-03-19T19:07:03.521Z,12.20
2023-03-19T19:09:31.249Z,12.12
2023-03-19T19:12:00.914Z,11.95
2023-03-19T19:14:29.080Z,11.75
2023-03-19T19:16:57.120Z,11.67
2023-03-19T19:19:27.686Z,11.57
2023-03-19T19:21:55.765Z,11.53
2023-03-19T19:24:24.964Z,11.40
2023-03-19T19:26:54.201Z,11.39
2023-03-19T19:29:25.866Z,11.27
2023-03-19T19:31:54.551Z,11.13
2023-03-19T19:34:23.202Z,11.13
2023-03-19T19:36:51.280Z,11.05
2023-03-19T19:39:19.216Z,10.90
2023-03-19T19:41:49.033Z,10.80
2023-03-19T19:44:19.937Z,10.69
2023-03-19T19:46:47.729Z,10.74
2023-03-19T19:49:16.338Z,10.63
2023-03-19T19:51:44.103Z,10.64
2023-03-19T19:54:11.791Z,10.63
2023-03-19T19:56:40.325Z,10.48
2023-03-19T19:59:14.939Z,10.61
2023-03-19T20:01:44.294Z,10.71
2023-03-19T20:04:14.841Z,10.74
2023-03-19T20:06:43.171Z,10.74
2023-03-19T20:09:11.225Z,10.78
2023-03-19T20:11:42.135Z,10.67
2023-03-19T20:14:14.574Z,10.72
2023-03-19T20:16:42.526Z,10.80
2023-03-19T20:19:18.774Z,10.82
2023-03-19T20:21:46.596Z,10.86
2023-03-19T20:24:14.352Z,10.87
2023-03-19T20:26:42.815Z,10.88
2023-03-19T20:29:15.561Z,10.90
2023-03-19T20:31:46.822Z,10.95
2023-03-19T20:34:25.538Z,10.96
2023-03-19T20:37:00.919Z,10.95
2023-03-19T20:39:28.873Z,10.87
2023-03-19T20:41:56.679Z,10.89
2023-03-19T20:44:26.751Z,10.79
2023-03-19T20:46:54.596Z,10.74
2023-03-19T20:49:22.882Z,10.86
2023-03-19T20:51:50.715Z,10.78
2023-03-19T20:54:18.776Z,10.79
2023-03-19T20:56:47.623Z,10.74
2023-03-19T20:59:16.527Z,10.70
2023-03-19T21:01:45.761Z,10.67
2023-03-19T21:04:21.867Z,10.64
2023-03-19T21:06:53.762Z,10.65
2023-03-19T21:09:22.515Z,10.69
2023-03-19T21:11:50.646Z,10.72
2023-03-19T21:14:18.464Z,10.75
2023-03-19T21:16:47.740Z,10.70
2023-03-19T21:19:16.664Z,10.70
2023-03-19T21:21:44.500Z,10.70
2023-03-19T21:24:15.547Z,10.60
2023-03-19T21:26:45.769Z,10.63
2023-03-19T21:29:16.632Z,10.65
2023-03-19T21:31:44.429Z,10.64
2023-03-19T21:34:15.331Z,10.64
2023-03-19T21:36:43.142Z,10.56
2023-03-19T21:39:11.003Z,10.55
2023-03-19T21:41:38.927Z,10.58
2023-03-19T21:44:11.389Z,10.57
2023-03-19T21:46:39.344Z,10.57
2023-03-19T21:49:11.912Z,10.56
2023-03-19T21:51:42.613Z,10.43
2023-03-19T21:54:10.327Z,10.50
2023-03-19T21:56:41.678Z,10.38
2023-03-19T21:59:14.885Z,10.33
2023-03-19T22:01:42.962Z,10.33
2023-03-19T22:04:11.592Z,10.32
2023-03-19T22:06:41.692Z,10.33
2023-03-19T22:09:09.653Z,10.32
2023-03-19T22:11:39.228Z,10.31
2023-03-19T22:14:09.166Z,10.32
2023-03-19T22:16:37.076Z,10.35
2023-03-19T22:19:04.919Z,10.36
2023-03-19T22:21:33.836Z,10.29
2023-03-19T22:24:03.107Z,10.32
2023-03-19T22:26:33.239Z,10.40
2023-03-19T22:29:03.947Z,10.44
2023-03-19T22:31:32.799Z,10.35
2023-03-19T22:34:00.674Z,10.32
2023-03-19T22:36:28.507Z,10.30
2023-03-19T22:38:56.389Z,10.32
2023-03-19T22:41:28.567Z,10.27
2023-03-19T22:43:58.200Z,10.20
2023-03-19T22:46:26.584Z,10.13
2023-03-19T22:48:54.408Z,10.06
2023-03-19T22:51:24.839Z,9.97
2023-03-19T22:53:52.958Z,9.95
2023-03-19T22:56:22.395Z,9.93
2023-03-19T22:58:52.325Z,9.90
2023-03-19T23:01:32.709Z,9.91
2023-03-19T23:04:16.007Z,9.94
2023-03-19T23:06:43.793Z,9.93
2023-03-19T23:09:19.000Z,9.97
2023-03-19T23:11:48.359Z,10.00
2023-03-19T23:14:28.376Z,10.00
2023-03-19T23:19:28.044Z,9.95
2023-03-19T23:21:56.124Z,9.93
2023-03-19T23:24:24.242Z,9.91
2023-03-19T23:26:54.390Z,9.93
2023-03-19T23:29:26.827Z,9.93
2023-03-19T23:31:54.685Z,9.91
2023-03-19T23:34:23.178Z,9.90
2023-03-19T23:36:51.088Z,9.89
2023-03-19T23:39:19.614Z,9.86
2023-03-19T23:41:49.531Z,9.85
2023-03-19T23:44:19.499Z,9.87
2023-03-19T23:46:50.813Z,9.77
2023-03-19T23:49:26.693Z,9.75
2023-03-19T23:51:54.464Z,9.76
2023-03-19T23:54:30.418Z,9.83
2023-03-19T23:56:59.690Z,9.81
2023-03-19T23:59:30.334Z,9.75
